sensor_id;sensor_type;location;lat;lon;timestamp;pressure;altitude;pressure_sealevel;temperature;humidity
51928;BME280;37953;52.806;18.270;2023-01-27T00:00:13;101056.72;;;2.22;100.00
51928;BME280;37953;52.806;18.270;2023-01-27T00:02:59;101061.06;;;2.23;100.00
51928;BME280;37953;52.806;18.270;2023-01-27T00:05:25;101049.03;;;2.22;100.00
51928;BME280;37953;52.806;18.270;2023-01-27T00:07:51;101055.94;;;2.23;100.00
51928;BME280;37953;52.806;18.270;2023-01-27T00:10:17;101057.63;;;2.22;100.00
51928;BME280;37953;52.806;18.270;2023-01-27T00:12:44;101045.69;;;2.23;100.00
51928;BME280;37953;52.806;18.270;2023-01-27T00:15:29;101051.69;;;2.23;100.00
51928;BME280;37953;52.806;18.270;2023-01-27T00:17:55;101043.91;;;2.22;100.00
51928;BME280;37953;52.806;18.270;2023-01-27T00:20:21;101049.13;;;2.23;100.00
51928;BME280;37953;52.806;18.270;2023-01-27T00:23:07;101046.47;;;2.22;100.00
51928;BME280;37953;52.806;18.270;2023-01-27T00:25:56;101051.69;;;2.23;100.00
51928;BME280;37953;52.806;18.270;2023-01-27T00:28:25;101046.56;;;2.23;100.00
51928;BME280;37953;52.806;18.270;2023-01-27T00:30:53;101051.69;;;2.23;100.00
51928;BME280;37953;52.806;18.270;2023-01-27T00:33:19;101048.25;;;2.23;100.00
51928;BME280;37953;52.806;18.270;2023-01-27T00:35:58;101053.38;;;2.23;100.00
51928;BME280;37953;52.806;18.270;2023-01-27T00:38:25;101058.50;;;2.23;100.00
51928;BME280;37953;52.806;18.270;2023-01-27T00:40:50;101058.50;;;2.23;100.00
51928;BME280;37953;52.806;18.270;2023-01-27T00:43:35;101051.59;;;2.22;100.00
51928;BME280;37953;52.806;18.270;2023-01-27T00:46:01;101053.28;;;2.21;100.00
51928;BME280;37953;52.806;18.270;2023-01-27T00:48:27;101061.84;;;2.22;100.00
51928;BME280;37953;52.806;18.270;2023-01-27T00:50:53;101067.88;;;2.22;100.00
51928;BME280;37953;52.806;18.270;2023-01-27T00:53:19;101068.75;;;2.23;100.00
51928;BME280;37953;52.806;18.270;2023-01-27T00:55:44;101066.97;;;2.22;100.00
51928;BME280;37953;52.806;18.270;2023-01-27T00:58:12;101070.44;;;2.22;100.00
51928;BME280;37953;52.806;18.270;2023-01-27T01:00:37;101069.53;;;2.22;100.00
51928;BME280;37953;52.806;18.270;2023-01-27T01:03:03;101069.53;;;2.22;100.00
51928;BME280;37953;52.806;18.270;2023-01-27T01:05:29;101072.09;;;2.22;100.00
51928;BME280;37953;52.806;18.270;2023-01-27T01:07:55;101070.44;;;2.22;100.00
51928;BME280;37953;52.806;18.270;2023-01-27T01:10:21;101064.41;;;2.22;100.00
51928;BME280;37953;52.806;18.270;2023-01-27T01:12:47;101068.66;;;2.21;100.00
51928;BME280;37953;52.806;18.270;2023-01-27T01:15:14;101071.22;;;2.21;100.00
51928;BME280;37953;52.806;18.270;2023-01-27T01:17:40;101068.66;;;2.21;100.00
51928;BME280;37953;52.806;18.270;2023-01-27T01:20:06;101076.38;;;2.21;100.00
51928;BME280;37953;52.806;18.270;2023-01-27T01:22:32;101079.78;;;2.22;100.00
51928;BME280;37953;52.806;18.270;2023-01-27T01:24:57;101072.09;;;2.22;100.00
51928;BME280;37953;52.806;18.270;2023-01-27T01:27:23;101073.81;;;2.21;100.00
51928;BME280;37953;52.806;18.270;2023-01-27T01:29:49;101076.44;;;2.23;100.00
51928;BME280;37953;52.806;18.270;2023-01-27T01:32:15;101076.44;;;2.23;100.00
51928;BME280;37953;52.806;18.270;2023-01-27T01:34:40;101079.78;;;2.22;100.00
51928;BME280;37953;52.806;18.270;2023-01-27T01:37:06;101079.78;;;2.22;100.00
51928;BME280;37953;52.806;18.270;2023-01-27T01:39:32;101083.25;;;2.22;100.00
51928;BME280;37953;52.806;18.270;2023-01-27T01:41:58;101081.50;;;2.21;100.00
51928;BME280;37953;52.806;18.270;2023-01-27T01:44:25;101090.00;;;2.20;100.00
51928;BME280;37953;52.806;18.270;2023-01-27T01:47:02;101087.44;;;2.20;100.00
51928;BME280;37953;52.806;18.270;2023-01-27T01:52:50;101078.84;;;2.20;100.00
51928;BME280;37953;52.806;18.270;2023-01-27T01:55:16;101081.41;;;2.20;100.00
51928;BME280;37953;52.806;18.270;2023-01-27T01:57:42;101088.31;;;2.21;100.00
51928;BME280;37953;52.806;18.270;2023-01-27T02:00:09;101077.19;;;2.20;100.00
51928;BME280;37953;52.806;18.270;2023-01-27T02:02:35;101081.41;;;2.20;100.00
51928;BME280;37953;52.806;18.270;2023-01-27T02:05:07;101085.66;;;2.19;100.00
51928;BME280;37953;52.806;18.270;2023-01-27T02:10:23;101086.53;;;2.20;100.00
51928;BME280;37953;52.806;18.270;2023-01-27T02:12:48;101088.22;;;2.19;100.00
51928;BME280;37953;52.806;18.270;2023-01-27T02:15:14;101082.22;;;2.19;100.00
51928;BME280;37953;52.806;18.270;2023-01-27T02:17:40;101083.03;;;2.18;100.00
51928;BME280;37953;52.806;18.270;2023-01-27T02:22:58;101084.78;;;2.19;100.00
51928;BME280;37953;52.806;18.270;2023-01-27T02:27:58;101086.50;;;2.18;100.00
51928;BME280;37953;52.806;18.270;2023-01-27T02:30:24;101086.50;;;2.18;100.00
51928;BME280;37953;52.806;18.270;2023-01-27T02:32:50;101091.63;;;2.18;100.00
51928;BME280;37953;52.806;18.270;2023-01-27T02:35:18;101090.78;;;2.19;100.00
51928;BME280;37953;52.806;18.270;2023-01-27T02:37:44;101096.78;;;2.20;100.00
51928;BME280;37953;52.806;18.270;2023-01-27T02:40:11;101102.81;;;2.20;100.00
51928;BME280;37953;52.806;18.270;2023-01-27T02:42:38;101094.19;;;2.18;100.00
51928;BME280;37953;52.806;18.270;2023-01-27T02:45:04;101090.72;;;2.18;100.00
51928;BME280;37953;52.806;18.270;2023-01-27T02:47:30;101091.63;;;2.18;100.00
51928;BME280;37953;52.806;18.270;2023-01-27T02:49:55;101094.19;;;2.18;100.00
51928;BME280;37953;52.806;18.270;2023-01-27T02:52:21;101100.97;;;2.18;100.00
51928;BME280;37953;52.806;18.270;2023-01-27T02:54:47;101094.97;;;2.17;100.00
51928;BME280;37953;52.806;18.270;2023-01-27T02:57:13;101100.97;;;2.18;100.00
51928;BME280;37953;52.806;18.270;2023-01-27T02:59:38;101096.66;;;2.17;100.00
51928;BME280;37953;52.806;18.270;2023-01-27T03:02:04;101100.00;;;2.16;100.00
51928;BME280;37953;52.806;18.270;2023-01-27T03:04:31;101100.84;;;2.15;100.00
51928;BME280;37953;52.806;18.270;2023-01-27T03:06:57;101105.97;;;2.15;100.00
51928;BME280;37953;52.806;18.270;2023-01-27T03:09:23;101099.88;;;2.13;100.00
51928;BME280;37953;52.806;18.270;2023-01-27T03:11:49;101094.75;;;2.13;100.00
51928;BME280;37953;52.806;18.270;2023-01-27T03:14:33;101096.44;;;2.12;100.00
51928;BME280;37953;52.806;18.270;2023-01-27T03:17:17;101095.59;;;2.12;100.00
51928;BME280;37953;52.806;18.270;2023-01-27T03:20:01;101103.28;;;2.12;100.00
51928;BME280;37953;52.806;18.270;2023-01-27T03:22:27;101104.13;;;2.12;100.00
51928;BME280;37953;52.806;18.270;2023-01-27T03:24:53;101111.81;;;2.12;100.00
51928;BME280;37953;52.806;18.270;2023-01-27T03:27:19;101101.50;;;2.11;100.00
51928;BME280;37953;52.806;18.270;2023-01-27T03:29:45;101102.38;;;2.11;100.00
51928;BME280;37953;52.806;18.270;2023-01-27T03:32:23;101100.63;;;2.10;100.00
51928;BME280;37953;52.806;18.270;2023-01-27T03:34:50;101102.38;;;2.11;100.00
51928;BME280;37953;52.806;18.270;2023-01-27T03:37:15;101103.28;;;2.12;100.00
51928;BME280;37953;52.806;18.270;2023-01-27T03:40:00;101103.19;;;2.10;100.00
51928;BME280;37953;52.806;18.270;2023-01-27T03:42:44;101103.28;;;2.12;100.00
51928;BME280;37953;52.806;18.270;2023-01-27T03:45:29;101098.94;;;2.11;100.00
51928;BME280;37953;52.806;18.270;2023-01-27T03:48:13;101098.06;;;2.10;100.00
51928;BME280;37953;52.806;18.270;2023-01-27T03:50:39;101103.19;;;2.10;100.00
51928;BME280;37953;52.806;18.270;2023-01-27T03:53:08;101091.16;;;2.09;100.00
51928;BME280;37953;52.806;18.270;2023-01-27T03:55:40;101095.50;;;2.10;100.00
51928;BME280;37953;52.806;18.270;2023-01-27T03:58:12;101095.50;;;2.10;100.00
51928;BME280;37953;52.806;18.270;2023-01-27T04:00:48;101090.28;;;2.09;100.00
51928;BME280;37953;52.806;18.270;2023-01-27T04:03:13;101099.66;;;2.08;100.00
51928;BME280;37953;52.806;18.270;2023-01-27T04:06:01;101099.75;;;2.10;100.00
51928;BME280;37953;52.806;18.270;2023-01-27T04:08:45;101103.09;;;2.09;100.00
51928;BME280;37953;52.806;18.270;2023-01-27T04:11:11;101099.59;;;2.07;100.00
51928;BME280;37953;52.806;18.270;2023-01-27T04:13:58;101103.84;;;2.06;100.00
51928;BME280;37953;52.806;18.270;2023-01-27T04:16:24;101108.16;;;2.07;100.00
51928;BME280;37953;52.806;18.270;2023-01-27T04:18:53;101099.59;;;2.07;100.00
51928;BME280;37953;52.806;18.270;2023-01-27T04:21:19;101109.06;;;2.08;100.00
51928;BME280;37953;52.806;18.270;2023-01-27T04:23:45;101111.63;;;2.08;100.00
51928;BME280;37953;52.806;18.270;2023-01-27T04:26:11;101109.84;;;2.07;100.00
51928;BME280;37953;52.806;18.270;2023-01-27T04:28:37;101111.63;;;2.08;100.00
51928;BME280;37953;52.806;18.270;2023-01-27T04:31:03;101126.16;;;2.09;100.00
51928;BME280;37953;52.806;18.270;2023-01-27T04:33:28;101131.31;;;2.09;100.00
51928;BME280;37953;52.806;18.270;2023-01-27T04:35:54;101133.84;;;2.09;100.00
51928;BME280;37953;52.806;18.270;2023-01-27T04:38:20;101135.56;;;2.08;100.00
51928;BME280;37953;52.806;18.270;2023-01-27T04:40:47;101135.56;;;2.08;100.00
51928;BME280;37953;52.806;18.270;2023-01-27T04:43:12;101133.84;;;2.09;100.00
51928;BME280;37953;52.806;18.270;2023-01-27T04:45:38;101127.88;;;2.08;100.00
51928;BME280;37953;52.806;18.270;2023-01-27T04:48:04;101130.44;;;2.08;100.00
51928;BME280;37953;52.806;18.270;2023-01-27T04:50:31;101134.72;;;2.09;100.00
51928;BME280;37953;52.806;18.270;2023-01-27T04:52:57;101144.97;;;2.09;100.00
51928;BME280;37953;52.806;18.270;2023-01-27T04:55:23;101144.13;;;2.09;100.00
51928;BME280;37953;52.806;18.270;2023-01-27T04:57:48;101151.81;;;2.09;100.00
51928;BME280;37953;52.806;18.270;2023-01-27T05:00:14;101155.22;;;2.09;100.00
51928;BME280;37953;52.806;18.270;2023-01-27T05:02:40;101150.06;;;2.08;100.00
51928;BME280;37953;52.806;18.270;2023-01-27T05:05:06;101152.63;;;2.08;100.00
51928;BME280;37953;52.806;18.270;2023-01-27T05:07:32;101156.94;;;2.09;100.00
51928;BME280;37953;52.806;18.270;2023-01-27T05:09:57;101154.38;;;2.09;100.00
51928;BME280;37953;52.806;18.270;2023-01-27T05:12:23;101161.97;;;2.07;100.00
51928;BME280;37953;52.806;18.270;2023-01-27T05:14:49;101161.97;;;2.07;100.00
51928;BME280;37953;52.806;18.270;2023-01-27T05:17:15;101167.09;;;2.07;100.00
51928;BME280;37953;52.806;18.270;2023-01-27T05:19:41;101167.91;;;2.06;100.00
51928;BME280;37953;52.806;18.270;2023-01-27T05:22:06;101167.84;;;2.04;100.00
51928;BME280;37953;52.806;18.270;2023-01-27T05:24:33;101164.41;;;2.04;100.00
51928;BME280;37953;52.806;18.270;2023-01-27T05:26:59;101168.66;;;2.03;100.00
51928;BME280;37953;52.806;18.270;2023-01-27T05:29:25;101168.66;;;2.03;100.00
51928;BME280;37953;52.806;18.270;2023-01-27T05:31:51;101164.47;;;2.06;100.00
51928;BME280;37953;52.806;18.270;2023-01-27T05:34:16;101173.19;;;2.09;100.00
51928;BME280;37953;52.806;18.270;2023-01-27T05:36:42;101165.56;;;2.11;100.00
51928;BME280;37953;52.806;18.270;2023-01-27T05:39:09;101176.78;;;2.13;100.00
51928;BME280;37953;52.806;18.270;2023-01-27T05:41:35;101177.66;;;2.13;100.00
51928;BME280;37953;52.806;18.270;2023-01-27T05:44:01;101175.16;;;2.15;100.00
51928;BME280;37953;52.806;18.270;2023-01-27T05:46:27;101177.81;;;2.16;100.00
51928;BME280;37953;52.806;18.270;2023-01-27T05:48:54;101181.25;;;2.17;100.00
51928;BME280;37953;52.806;18.270;2023-01-27T05:51:21;101182.13;;;2.17;100.00
51928;BME280;37953;52.806;18.270;2023-01-27T05:53:47;101182.94;;;2.16;100.00
51928;BME280;37953;52.806;18.270;2023-01-27T05:56:17;101194.94;;;2.17;100.00
51928;BME280;37953;52.806;18.270;2023-01-27T05:58:44;101188.13;;;2.18;100.00
51928;BME280;37953;52.806;18.270;2023-01-27T06:01:16;101187.25;;;2.17;100.00
51928;BME280;37953;52.806;18.270;2023-01-27T06:04:04;101189.81;;;2.17;100.00
51928;BME280;37953;52.806;18.270;2023-01-27T06:06:31;101188.94;;;2.17;100.00
51928;BME280;37953;52.806;18.270;2023-01-27T06:08:58;101189.72;;;2.16;100.00
51928;BME280;37953;52.806;18.270;2023-01-27T06:11:24;101191.41;;;2.15;100.00
51928;BME280;37953;52.806;18.270;2023-01-27T06:13:51;101187.16;;;2.16;100.00
51928;BME280;37953;52.806;18.270;2023-01-27T06:16:20;101189.72;;;2.16;100.00
51928;BME280;37953;52.806;18.270;2023-01-27T06:18:47;101182.94;;;2.16;100.00
51928;BME280;37953;52.806;18.270;2023-01-27T06:21:13;101179.47;;;2.16;100.00
51928;BME280;37953;52.806;18.270;2023-01-27T06:23:39;101182.03;;;2.16;100.00
51928;BME280;37953;52.806;18.270;2023-01-27T06:26:06;101186.38;;;2.17;100.00
51928;BME280;37953;52.806;18.270;2023-01-27T06:28:34;101188.94;;;2.17;100.00
51928;BME280;37953;52.806;18.270;2023-01-27T06:31:04;101188.94;;;2.17;100.00
51928;BME280;37953;52.806;18.270;2023-01-27T06:33:30;101189.72;;;2.16;100.00
51928;BME280;37953;52.806;18.270;2023-01-27T06:36:00;101189.72;;;2.16;100.00
51928;BME280;37953;52.806;18.270;2023-01-27T06:38:32;101194.84;;;2.16;100.00
51928;BME280;37953;52.806;18.270;2023-01-27T06:40:58;101200.78;;;2.15;100.00
51928;BME280;37953;52.806;18.270;2023-01-27T06:43:25;101196.47;;;2.14;100.00
51928;BME280;37953;52.806;18.270;2023-01-27T06:45:51;101198.22;;;2.15;100.00
51928;BME280;37953;52.806;18.270;2023-01-27T06:48:18;101200.78;;;2.15;100.00
51928;BME280;37953;52.806;18.270;2023-01-27T06:50:44;101203.28;;;2.13;100.00
51928;BME280;37953;52.806;18.270;2023-01-27T06:53:10;101207.63;;;2.14;100.00
51928;BME280;37953;52.806;18.270;2023-01-27T06:55:37;101209.34;;;2.15;100.00
51928;BME280;37953;52.806;18.270;2023-01-27T06:58:06;101211.91;;;2.15;100.00
51928;BME280;37953;52.806;18.270;2023-01-27T07:00:33;101211.06;;;2.15;100.00
51928;BME280;37953;52.806;18.270;2023-01-27T07:02:59;101221.31;;;2.15;100.00
51928;BME280;37953;52.806;18.270;2023-01-27T07:05:25;101221.31;;;2.15;100.00
51928;BME280;37953;52.806;18.270;2023-01-27T07:07:51;101231.63;;;2.16;100.00
51928;BME280;37953;52.806;18.270;2023-01-27T07:10:17;101224.75;;;2.15;100.00
51928;BME280;37953;52.806;18.270;2023-01-27T07:12:43;101225.56;;;2.14;100.00
51928;BME280;37953;52.806;18.270;2023-01-27T07:15:09;101229.88;;;2.15;100.00
51928;BME280;37953;52.806;18.270;2023-01-27T07:17:35;101229.94;;;2.17;100.00
51928;BME280;37953;52.806;18.270;2023-01-27T07:20:01;101233.28;;;2.16;100.00
51928;BME280;37953;52.806;18.270;2023-01-27T07:22:28;101235.88;;;2.16;100.00
51928;BME280;37953;52.806;18.270;2023-01-27T07:24:53;101236.75;;;2.16;100.00
51928;BME280;37953;52.806;18.270;2023-01-27T07:27:22;101237.56;;;2.15;100.00
51928;BME280;37953;52.806;18.270;2023-01-27T07:29:48;101240.94;;;2.14;100.00
51928;BME280;37953;52.806;18.270;2023-01-27T07:32:14;101250.22;;;2.12;100.00
51928;BME280;37953;52.806;18.270;2023-01-27T07:34:40;101245.09;;;2.12;100.00
51928;BME280;37953;52.806;18.270;2023-01-27T07:37:12;101251.03;;;2.11;100.00
51928;BME280;37953;52.806;18.270;2023-01-27T07:39:38;101254.50;;;2.12;100.00
51928;BME280;37953;52.806;18.270;2023-01-27T07:42:05;101261.34;;;2.13;100.00
51928;BME280;37953;52.806;18.270;2023-01-27T07:44:31;101264.75;;;2.12;100.00
51928;BME280;37953;52.806;18.270;2023-01-27T07:46:57;101259.63;;;2.12;100.00
51928;BME280;37953;52.806;18.270;2023-01-27T07:49:23;101255.28;;;2.11;100.00
51928;BME280;37953;52.806;18.270;2023-01-27T07:51:49;101267.13;;;2.09;100.00
51928;BME280;37953;52.806;18.270;2023-01-27T07:54:15;101270.44;;;2.06;100.00
51928;BME280;37953;52.806;18.270;2023-01-27T07:56:42;101271.94;;;2.02;100.00
51928;BME280;37953;52.806;18.270;2023-01-27T07:59:09;101271.06;;;2.02;100.00
51928;BME280;37953;52.806;18.270;2023-01-27T08:01:36;101278.84;;;2.03;100.00
51928;BME280;37953;52.806;18.270;2023-01-27T08:04:05;101273.72;;;2.03;100.00
51928;BME280;37953;52.806;18.270;2023-01-27T08:06:31;101277.06;;;2.02;100.00
51928;BME280;37953;52.806;18.270;2023-01-27T08:08:57;101278.75;;;2.02;100.00
51928;BME280;37953;52.806;18.270;2023-01-27T08:11:23;101276.13;;;2.00;100.00
51928;BME280;37953;52.806;18.270;2023-01-27T08:13:48;101277.81;;;2.00;100.00
51928;BME280;37953;52.806;18.270;2023-01-27T08:16:14;101280.44;;;2.01;100.00
51928;BME280;37953;52.806;18.270;2023-01-27T08:18:40;101289.97;;;2.04;100.00
51928;BME280;37953;52.806;18.270;2023-01-27T08:21:08;101294.22;;;2.03;100.00
51928;BME280;37953;52.806;18.270;2023-01-27T08:23:34;101291.66;;;2.03;100.00
51928;BME280;37953;52.806;18.270;2023-01-27T08:26:01;101292.53;;;2.04;100.00
51928;BME280;37953;52.806;18.270;2023-01-27T08:28:46;101292.63;;;2.06;100.00
51928;BME280;37953;52.806;18.270;2023-01-27T08:31:12;101297.00;;;2.08;100.00
51928;BME280;37953;52.806;18.270;2023-01-27T08:33:39;101294.59;;;2.11;100.00
51928;BME280;37953;52.806;18.270;2023-01-27T08:36:12;101298.84;;;2.11;100.00
51928;BME280;37953;52.806;18.270;2023-01-27T08:38:39;101298.84;;;2.11;100.00
51928;BME280;37953;52.806;18.270;2023-01-27T08:41:06;101301.31;;;2.09;100.00
51928;BME280;37953;52.806;18.270;2023-01-27T08:43:32;101303.09;;;2.10;100.00
51928;BME280;37953;52.806;18.270;2023-01-27T08:45:58;101303.00;;;2.09;100.00
51928;BME280;37953;52.806;18.270;2023-01-27T08:48:27;101308.13;;;2.09;100.00
51928;BME280;37953;52.806;18.270;2023-01-27T08:50:54;101303.88;;;2.09;100.00
51928;BME280;37953;52.806;18.270;2023-01-27T08:53:20;101316.78;;;2.11;100.00
51928;BME280;37953;52.806;18.270;2023-01-27T08:55:46;101312.53;;;2.11;100.00
51928;BME280;37953;52.806;18.270;2023-01-27T08:58:12;101316.06;;;2.13;100.00
51928;BME280;37953;52.806;18.270;2023-01-27T09:00:38;101317.84;;;2.14;100.00
51928;BME280;37953;52.806;18.270;2023-01-27T09:03:04;101310.19;;;2.16;100.00
51928;BME280;37953;52.806;18.270;2023-01-27T09:05:30;101311.97;;;2.17;100.00
51928;BME280;37953;52.806;18.270;2023-01-27T09:07:56;101322.22;;;2.17;100.00
51928;BME280;37953;52.806;18.270;2023-01-27T09:10:22;101317.97;;;2.17;100.00
51928;BME280;37953;52.806;18.270;2023-01-27T09:12:48;101325.75;;;2.19;100.00
51928;BME280;37953;52.806;18.270;2023-01-27T09:15:14;101328.31;;;2.19;100.00
51928;BME280;37953;52.806;18.270;2023-01-27T09:17:40;101325.84;;;2.20;100.00
51928;BME280;37953;52.806;18.270;2023-01-27T09:20:06;101336.97;;;2.21;100.00
51928;BME280;37953;52.806;18.270;2023-01-27T09:22:32;101331.97;;;2.24;100.00
51928;BME280;37953;52.806;18.270;2023-01-27T09:24:57;101332.06;;;2.26;100.00
51928;BME280;37953;52.806;18.270;2023-01-27T09:27:23;101335.50;;;2.26;100.00
51928;BME280;37953;52.806;18.270;2023-01-27T09:29:49;101340.72;;;2.28;100.00
51928;BME280;37953;52.806;18.270;2023-01-27T09:32:15;101339.97;;;2.30;100.00
51928;BME280;37953;52.806;18.270;2023-01-27T09:34:41;101337.59;;;2.33;100.00
51928;BME280;37953;52.806;18.270;2023-01-27T09:37:09;101339.41;;;2.36;100.00
51928;BME280;37953;52.806;18.270;2023-01-27T09:39:42;101338.69;;;2.38;100.00
51928;BME280;37953;52.806;18.270;2023-01-27T09:55:13;101358.75;;;2.47;100.00
51928;BME280;37953;52.806;18.270;2023-01-27T09:57:41;101349.38;;;2.48;100.00
51928;BME280;37953;52.806;18.270;2023-01-27T10:02:42;101346.03;;;2.49;100.00
51928;BME280;37953;52.806;18.270;2023-01-27T10:05:40;101348.69;;;2.50;100.00
51928;BME280;37953;52.806;18.270;2023-01-27T10:13:46;101338.47;;;2.52;100.00
51928;BME280;37953;52.806;18.270;2023-01-27T10:16:33;101342.00;;;2.54;100.00
51928;BME280;37953;52.806;18.270;2023-01-27T10:26:59;101343.84;;;2.56;100.00
51928;BME280;37953;52.806;18.270;2023-01-27T11:04:37;101368.56;;;2.72;100.00
51928;BME280;37953;52.806;18.270;2023-01-27T11:07:20;101365.13;;;2.72;100.00
51928;BME280;37953;52.806;18.270;2023-01-27T11:09:48;101361.72;;;2.73;100.00
51928;BME280;37953;52.806;18.270;2023-01-27T11:12:18;101366.88;;;2.73;100.00
51928;BME280;37953;52.806;18.270;2023-01-27T11:14:50;101366.94;;;2.74;100.00
51928;BME280;37953;52.806;18.270;2023-01-27T11:22:34;101362.84;;;2.78;100.00
51928;BME280;37953;52.806;18.270;2023-01-27T11:28:20;101364.69;;;2.80;100.00
51928;BME280;37953;52.806;18.270;2023-01-27T11:30:33;101367.25;;;2.80;100.00
51928;BME280;37953;52.806;18.270;2023-01-27T11:33:03;101363.88;;;2.81;100.00
51928;BME280;37953;52.806;18.270;2023-01-27T11:35:34;101369.91;;;2.82;100.00
51928;BME280;37953;52.806;18.270;2023-01-27T11:38:00;101364.78;;;2.82;100.00
51928;BME280;37953;52.806;18.270;2023-01-27T11:40:29;101367.34;;;2.82;100.00
51928;BME280;37953;52.806;18.270;2023-01-27T11:42:56;101365.72;;;2.84;100.00
51928;BME280;37953;52.806;18.270;2023-01-27T11:45:23;101366.59;;;2.84;100.00
51928;BME280;37953;52.806;18.270;2023-01-27T11:47:56;101359.78;;;2.85;100.00
51928;BME280;37953;52.806;18.270;2023-01-27T11:50:31;101364.13;;;2.86;100.00
51928;BME280;37953;52.806;18.270;2023-01-27T11:53:11;101359.84;;;2.87;100.00
51928;BME280;37953;52.806;18.270;2023-01-27T11:56:03;101357.28;;;2.87;100.00
51928;BME280;37953;52.806;18.270;2023-01-27T12:01:20;101356.41;;;2.86;100.00
51928;BME280;37953;52.806;18.270;2023-01-27T12:09:04;101363.22;;;2.85;100.00
51928;BME280;37953;52.806;18.270;2023-01-27T12:11:31;101358.06;;;2.85;100.00
51928;BME280;37953;52.806;18.270;2023-01-27T12:14:01;101358.91;;;2.84;100.00
51928;BME280;37953;52.806;18.270;2023-01-27T12:19:00;101365.63;;;2.82;100.00
51928;BME280;37953;52.806;18.270;2023-01-27T12:21:35;101368.94;;;2.80;100.00
51928;BME280;37953;52.806;18.270;2023-01-27T12:24:02;101371.44;;;2.78;100.00
51928;BME280;37953;52.806;18.270;2023-01-27T12:26:37;101363.66;;;2.77;100.00
51928;BME280;37953;52.806;18.270;2023-01-27T12:29:06;101367.03;;;2.76;100.00
51928;BME280;37953;52.806;18.270;2023-01-27T12:31:51;101361.81;;;2.74;100.00
51928;BME280;37953;52.806;18.270;2023-01-27T12:34:21;101364.28;;;2.73;100.00
51928;BME280;37953;52.806;18.270;2023-01-27T12:36:48;101366.00;;;2.72;100.00
51928;BME280;37953;52.806;18.270;2023-01-27T12:41:53;101365.78;;;2.68;100.00
51928;BME280;37953;52.806;18.270;2023-01-27T12:44:19;101363.03;;;2.64;100.00
51928;BME280;37953;52.806;18.270;2023-01-27T12:47:00;101359.59;;;2.64;100.00
51928;BME280;37953;52.806;18.270;2023-01-27T12:49:31;101368.13;;;2.63;100.00
51928;BME280;37953;52.806;18.270;2023-01-27T12:52:00;101370.69;;;2.63;100.00
51928;BME280;37953;52.806;18.270;2023-01-27T12:54:26;101357.78;;;2.61;100.00
51928;BME280;37953;52.806;18.270;2023-01-27T12:56:54;101366.34;;;2.62;100.00
51928;BME280;37953;52.806;18.270;2023-01-27T12:59:25;101363.00;;;2.63;100.00
51928;BME280;37953;52.806;18.270;2023-01-27T13:04:23;101367.28;;;2.64;100.00
51928;BME280;37953;52.806;18.270;2023-01-27T13:07:05;101359.59;;;2.64;100.00
51928;BME280;37953;52.806;18.270;2023-01-27T13:12:24;101362.25;;;2.65;100.00
51928;BME280;37953;52.806;18.270;2023-01-27T13:15:27;101365.69;;;2.66;100.00
51928;BME280;37953;52.806;18.270;2023-01-27T13:17:46;101370.91;;;2.68;100.00
51928;BME280;37953;52.806;18.270;2023-01-27T13:20:34;101366.66;;;2.68;100.00
51928;BME280;37953;52.806;18.270;2023-01-27T13:25:45;101368.41;;;2.69;100.00
51928;BME280;37953;52.806;18.270;2023-01-27T13:28:21;101372.72;;;2.70;100.00
51928;BME280;37953;52.806;18.270;2023-01-27T13:30:50;101371.94;;;2.71;100.00
51928;BME280;37953;52.806;18.270;2023-01-27T13:33:43;101371.94;;;2.71;100.00
51928;BME280;37953;52.806;18.270;2023-01-27T13:36:19;101370.25;;;2.72;100.00
51928;BME280;37953;52.806;18.270;2023-01-27T13:38:54;101372.00;;;2.73;100.00
51928;BME280;37953;52.806;18.270;2023-01-27T13:41:27;101375.38;;;2.72;100.00
51928;BME280;37953;52.806;18.270;2023-01-27T13:43:59;101375.47;;;2.73;100.00
51928;BME280;37953;52.806;18.270;2023-01-27T13:46:27;101372.94;;;2.75;100.00
51928;BME280;37953;52.806;18.270;2023-01-27T13:49:11;101382.44;;;2.76;100.00
51928;BME280;37953;52.806;18.270;2023-01-27T13:51:39;101377.28;;;2.76;100.00
51928;BME280;37953;52.806;18.270;2023-01-27T13:54:05;101375.59;;;2.76;100.00
51928;BME280;37953;52.806;18.270;2023-01-27T13:56:37;101383.28;;;2.76;100.00
51928;BME280;37953;52.806;18.270;2023-01-27T14:12:14;101389.31;;;2.77;100.00
51928;BME280;37953;52.806;18.270;2023-01-27T14:14:51;101391.88;;;2.77;100.00
51928;BME280;37953;52.806;18.270;2023-01-27T14:17:26;101393.56;;;2.76;100.00
51928;BME280;37953;52.806;18.270;2023-01-27T14:25:22;101405.53;;;2.76;100.00
51928;BME280;37953;52.806;18.270;2023-01-27T14:27:51;101406.31;;;2.75;100.00
51928;BME280;37953;52.806;18.270;2023-01-27T14:30:27;101405.44;;;2.74;100.00
51928;BME280;37953;52.806;18.270;2023-01-27T14:33:11;101400.31;;;2.74;100.00
51928;BME280;37953;52.806;18.270;2023-01-27T14:43:41;101410.47;;;2.73;100.00
51928;BME280;37953;52.806;18.270;2023-01-27T14:46:16;101411.31;;;2.72;100.00
51928;BME280;37953;52.806;18.270;2023-01-27T14:51:44;101407.78;;;2.70;100.00
51928;BME280;37953;52.806;18.270;2023-01-27T14:59:44;101415.38;;;2.68;100.00
51928;BME280;37953;52.806;18.270;2023-01-27T15:04:53;101420.53;;;2.68;100.00
51928;BME280;37953;52.806;18.270;2023-01-27T15:12:23;101413.66;;;2.67;100.00
51928;BME280;37953;52.806;18.270;2023-01-27T15:21:15;101427.44;;;2.69;100.00
51928;BME280;37953;52.806;18.270;2023-01-27T15:25:33;101423.09;;;2.68;100.00